Time;durP1;ratioP1;P1;durP2;ratioP2;P2;SDS_P1;SDS_P2;PMS_P1;PMS_P2;Temp;Humidity;BMP_temperature;BMP_pressure;BME280_temperature;BME280_humidity;BME280_pressure;Samples;Min_cycle;Max_cycle;Signal;HPM_P1;HPM_P2
2023/01/17 00:01:59;;;;;;;33.30;20.30;;;7.30;99.90;;;;;;5097537;28;20585;-85
2023/01/17 00:10:03;;;;;;;32.58;19.85;;;7.20;99.90;;;;;;5097444;28;20207;-81
2023/01/17 00:12:29;;;;;;;34.50;21.60;;;7.20;99.90;;;;;;5097401;28;20287;-82
2023/01/17 00:14:57;;;;;;;35.70;21.85;;;7.20;99.90;;;;;;5095627;28;20614;-85
2023/01/17 00:17:24;;;;;;;32.65;19.55;;;7.20;99.90;;;;;;5097444;28;20522;-84
2023/01/17 01:34:53;;;;;;;25.08;18.35;;;7.60;99.90;;;;;;5095513;28;20230;-83
2023/01/17 01:37:19;;;;;;;20.97;15.73;;;7.60;99.90;;;;;;5094237;28;20660;-83
2023/01/17 01:39:44;;;;;;;23.43;16.90;;;7.70;99.90;;;;;;5097954;28;20187;-84
2023/01/17 01:42:14;;;;;;;25.93;15.80;;;7.80;99.90;;;;;;5096463;28;20404;-82
2023/01/17 01:44:50;;;;;;;24.35;15.63;;;7.80;99.90;;;;;;5093951;28;20181;-85
2023/01/17 01:47:25;;;;;;;27.10;16.60;;;7.90;99.90;;;;;;5093985;28;20314;-84
2023/01/17 01:49:51;;;;;;;23.73;16.63;;;7.90;99.90;;;;;;5093801;28;20233;-82
2023/01/17 01:52:21;;;;;;;23.90;16.80;;;7.90;99.90;;;;;;5095671;28;20219;-85
2023/01/17 01:54:52;;;;;;;23.52;16.95;;;7.90;99.90;;;;;;5094937;28;20422;-85
2023/01/17 01:57:21;;;;;;;26.95;16.52;;;7.80;99.90;;;;;;5093981;28;20204;-85
2023/01/17 02:00:02;;;;;;;23.33;16.27;;;7.80;99.90;;;;;;5093682;28;20212;-82
2023/01/17 02:02:29;;;;;;;23.92;16.45;;;7.80;99.90;;;;;;5094033;28;20197;-84
2023/01/17 02:04:58;;;;;;;23.83;16.80;;;7.80;99.90;;;;;;5093562;28;20177;-82
2023/01/17 02:07:40;;;;;;;22.42;16.80;;;7.80;99.90;;;;;;5093587;28;20220;-85
2023/01/17 02:10:06;;;;;;;21.40;17.08;;;7.80;99.90;;;;;;5093618;28;20645;-84
2023/01/17 02:12:32;;;;;;;20.87;16.67;;;7.80;99.90;;;;;;5093504;28;20199;-85
2023/01/17 02:14:58;;;;;;;23.80;14.80;;;7.80;99.90;;;;;;5094776;28;20396;-85
2023/01/17 02:17:35;;;;;;;21.75;15.45;;;7.90;99.90;;;;;;5093464;28;20211;-85
2023/01/17 02:20:22;;;;;;;24.25;16.05;;;7.90;99.90;;;;;;5093771;28;20506;-85
2023/01/17 02:23:09;;;;;;;23.10;16.00;;;7.90;99.90;;;;;;5094635;28;20204;-85
2023/01/17 02:26:18;;;;;;;22.40;16.77;;;7.90;99.90;;;;;;5093102;28;20545;-85
2023/01/17 02:29:21;;;;;;;21.15;15.18;;;8.00;99.90;;;;;;5074546;28;20716;-84
2023/01/17 02:31:56;;;;;;;25.75;15.93;;;8.00;99.90;;;;;;5093112;28;20530;-84
2023/01/17 02:34:46;;;;;;;22.20;16.17;;;8.00;99.90;;;;;;5094641;28;20172;-83
2023/01/17 02:37:11;;;;;;;22.42;16.73;;;8.00;99.90;;;;;;5093842;28;20196;-83
2023/01/17 02:39:50;;;;;;;26.27;17.37;;;8.10;99.90;;;;;;5095076;28;20191;-86
2023/01/17 02:42:18;;;;;;;25.05;16.17;;;8.10;99.90;;;;;;5094577;28;20188;-84
2023/01/17 02:44:44;;;;;;;22.80;16.45;;;8.00;99.90;;;;;;5094244;28;20183;-85
2023/01/17 02:47:37;;;;;;;27.17;18.90;;;8.00;99.90;;;;;;5092809;28;20302;-84
2023/01/17 02:50:08;;;;;;;27.27;19.05;;;7.90;99.90;;;;;;5089253;28;20220;-83
2023/01/17 02:52:58;;;;;;;24.65;16.88;;;7.90;99.90;;;;;;5092619;28;20207;-84
2023/01/17 02:55:24;;;;;;;18.10;14.73;;;7.80;99.90;;;;;;5093846;28;20591;-84
2023/01/17 02:58:12;;;;;;;20.33;16.50;;;7.60;99.90;;;;;;5093971;28;20291;-84
2023/01/17 03:00:37;;;;;;;21.52;15.98;;;7.40;99.90;;;;;;5092683;28;20301;-84
2023/01/17 03:03:28;;;;;;;20.50;15.90;;;7.30;99.90;;;;;;5092772;28;20204;-85
2023/01/17 03:05:59;;;;;;;23.55;17.50;;;7.30;99.90;;;;;;5092759;28;20219;-84
2023/01/17 03:08:26;;;;;;;21.23;17.50;;;7.20;99.90;;;;;;5092868;28;20203;-85
2023/01/17 03:10:52;;;;;;;24.50;20.45;;;7.10;99.90;;;;;;5092648;28;20649;-83
2023/01/17 03:13:18;;;;;;;29.00;21.43;;;7.20;99.90;;;;;;5093837;28;20208;-83
2023/01/17 03:15:44;;;;;;;34.17;23.83;;;7.10;99.90;;;;;;5092901;28;20888;-85
2023/01/17 03:18:13;;;;;;;37.38;22.38;;;7.00;99.90;;;;;;5095306;28;20211;-83
2023/01/17 03:20:39;;;;;;;33.15;22.48;;;7.10;99.90;;;;;;5094981;28;20187;-85
2023/01/17 03:23:05;;;;;;;29.60;20.90;;;7.20;99.90;;;;;;5093771;28;20565;-85
2023/01/17 03:25:31;;;;;;;29.27;21.30;;;7.20;99.90;;;;;;5092288;28;20417;-84
2023/01/17 03:27:56;;;;;;;25.73;20.13;;;7.30;99.90;;;;;;5093635;28;20224;-85
2023/01/17 03:30:22;;;;;;;31.07;19.97;;;7.30;99.90;;;;;;5093936;28;20905;-84
2023/01/17 03:32:48;;;;;;;24.67;18.00;;;7.40;99.90;;;;;;5096420;28;20207;-85
2023/01/17 03:35:15;;;;;;;23.08;17.75;;;7.50;99.90;;;;;;5096411;28;20181;-86
2023/01/17 03:37:41;;;;;;;19.80;16.23;;;7.50;99.90;;;;;;5096220;28;20279;-85
2023/01/17 03:40:08;;;;;;;27.60;18.27;;;7.60;99.90;;;;;;5096411;28;20379;-83
2023/01/17 03:42:34;;;;;;;23.15;16.40;;;7.70;99.90;;;;;;5097937;28;20262;-85
2023/01/17 03:45:00;;;;;;;23.65;16.52;;;7.70;99.90;;;;;;5097534;28;20181;-83
2023/01/17 03:47:26;;;;;;;24.93;16.80;;;7.70;99.90;;;;;;5097812;28;20537;-85
2023/01/17 03:49:52;;;;;;;23.97;17.23;;;7.70;99.90;;;;;;5096200;28;20206;-85
2023/01/17 03:52:17;;;;;;;22.50;15.57;;;7.80;99.90;;;;;;5097268;28;20490;-85
2023/01/17 03:54:43;;;;;;;23.57;16.97;;;7.80;99.90;;;;;;5097012;28;20666;-84
2023/01/17 03:57:09;;;;;;;21.43;15.37;;;7.80;99.90;;;;;;5096522;28;20208;-83
2023/01/17 03:59:34;;;;;;;23.00;16.37;;;7.80;99.90;;;;;;5096554;28;20211;-83
2023/01/17 04:02:00;;;;;;;24.43;18.33;;;7.80;99.90;;;;;;5096041;28;20188;-85
2023/01/17 04:04:26;;;;;;;21.23;18.67;;;7.80;99.90;;;;;;5095892;28;20180;-84
2023/01/17 04:06:51;;;;;;;22.97;16.60;;;7.70;99.90;;;;;;5098814;28;20220;-88
2023/01/17 04:09:17;;;;;;;21.53;16.70;;;7.70;99.90;;;;;;5100828;28;20172;-84
2023/01/17 04:11:43;;;;;;;19.60;16.67;;;7.60;99.90;;;;;;5097681;28;20177;-85
2023/01/17 04:14:08;;;;;;;22.60;17.67;;;7.60;99.90;;;;;;5096935;28;20238;-84
2023/01/17 04:16:36;;;;;;;20.40;15.53;;;7.60;99.90;;;;;;5095818;28;20177;-85
2023/01/17 04:19:02;;;;;;;22.95;16.80;;;7.60;99.90;;;;;;5095494;28;20211;-85
2023/01/17 04:21:28;;;;;;;23.87;16.43;;;7.50;99.90;;;;;;5096994;28;20540;-85
2023/01/17 04:23:53;;;;;;;22.07;15.87;;;7.30;99.90;;;;;;5096831;28;20470;-84
2023/01/17 04:26:19;;;;;;;25.20;17.77;;;7.20;99.90;;;;;;5096636;28;20661;-85
2023/01/17 04:28:44;;;;;;;43.33;26.20;;;7.00;99.90;;;;;;5096600;28;20220;-85
2023/01/17 04:31:14;;;;;;;22.77;17.60;;;6.90;99.90;;;;;;5096880;28;20712;-85
2023/01/17 04:33:40;;;;;;;24.92;17.65;;;6.80;99.90;;;;;;5095278;28;20269;-85
2023/01/17 04:36:05;;;;;;;22.00;17.80;;;6.70;99.90;;;;;;5096900;28;20181;-85
2023/01/17 04:38:31;;;;;;;21.67;17.00;;;6.60;99.90;;;;;;5096384;28;20271;-85
2023/01/17 04:40:58;;;;;;;21.63;14.80;;;6.60;99.90;;;;;;5095584;28;20181;-85
2023/01/17 04:43:23;;;;;;;21.63;15.52;;;6.60;99.90;;;;;;5095381;28;20197;-84
2023/01/17 04:45:55;;;;;;;21.57;15.50;;;6.60;99.90;;;;;;5094979;28;20215;-85
2023/01/17 04:48:21;;;;;;;18.77;14.35;;;6.50;99.90;;;;;;5096282;28;20192;-85
2023/01/17 04:50:46;;;;;;;18.90;13.10;;;6.50;99.90;;;;;;5096519;28;20172;-84
2023/01/17 04:53:12;;;;;;;23.20;14.70;;;6.60;99.90;;;;;;5096152;28;20440;-85
2023/01/17 04:55:38;;;;;;;19.02;12.02;;;6.50;99.90;;;;;;5094289;28;20685;-85
2023/01/17 04:58:04;;;;;;;17.67;11.70;;;6.50;99.90;;;;;;5094814;28;20203;-84
2023/01/17 05:00:30;;;;;;;16.40;12.13;;;6.50;99.90;;;;;;5095893;28;20513;-85
2023/01/17 05:02:56;;;;;;;15.60;11.17;;;6.40;99.90;;;;;;5096062;28;20486;-85
2023/01/17 05:05:22;;;;;;;14.80;11.07;;;6.40;99.90;;;;;;5094714;28;20211;-84
2023/01/17 05:07:54;;;;;;;16.97;11.73;;;6.20;99.90;;;;;;5093888;28;20444;-84
2023/01/17 05:10:20;;;;;;;15.05;11.25;;;6.10;99.90;;;;;;5094325;28;20862;-83
2023/01/17 05:12:56;;;;;;;19.03;12.67;;;6.00;99.90;;;;;;5095787;28;20228;-84
2023/01/17 05:15:22;;;;;;;15.73;11.60;;;6.00;99.90;;;;;;5095671;28;20164;-84
2023/01/17 05:17:50;;;;;;;17.60;11.18;;;5.90;99.90;;;;;;5095507;28;20283;-84
2023/01/17 05:20:16;;;;;;;22.20;15.52;;;5.90;99.90;;;;;;5094337;28;20637;-83
2023/01/17 05:22:41;;;;;;;15.80;11.17;;;5.90;99.90;;;;;;5094741;28;20196;-85
2023/01/17 05:25:07;;;;;;;15.90;11.97;;;5.90;99.90;;;;;;5097077;28;20490;-84
2023/01/17 05:27:33;;;;;;;17.55;11.65;;;5.90;99.90;;;;;;5094160;28;20224;-84
2023/01/17 05:29:59;;;;;;;15.80;11.20;;;5.90;99.90;;;;;;5095513;28;20237;-84
2023/01/17 05:32:24;;;;;;;20.73;12.90;;;5.80;99.90;;;;;;5111586;28;20286;-85
2023/01/17 05:34:50;;;;;;;15.50;10.83;;;5.70;99.90;;;;;;5115808;28;20180;-82
2023/01/17 05:37:16;;;;;;;18.37;11.77;;;5.70;99.90;;;;;;5115699;28;20553;-84
2023/01/17 05:39:41;;;;;;;15.63;11.90;;;5.70;99.90;;;;;;5114411;28;20185;-83
2023/01/17 05:42:07;;;;;;;20.80;14.00;;;5.70;99.90;;;;;;5108858;28;20432;-85
2023/01/17 05:44:33;;;;;;;20.70;13.00;;;5.60;99.90;;;;;;5074571;28;20195;-82
2023/01/17 05:46:58;;;;;;;20.70;12.43;;;5.60;99.90;;;;;;5073643;28;20220;-85
2023/01/17 05:49:24;;;;;;;20.23;12.37;;;5.50;99.90;;;;;;5074606;28;20224;-83
2023/01/17 05:51:50;;;;;;;21.97;13.30;;;5.50;99.90;;;;;;5074263;28;20623;-84
2023/01/17 05:54:16;;;;;;;20.33;12.90;;;5.50;99.90;;;;;;5074013;28;20187;-85
2023/01/17 05:56:42;;;;;;;14.32;7.05;;;5.50;99.90;;;;;;5073347;28;20704;-84
2023/01/17 05:59:07;;;;;;;20.20;13.40;;;5.60;99.90;;;;;;5074051;28;20660;-84
2023/01/17 06:01:33;;;;;;;18.80;13.37;;;5.50;99.90;;;;;;5075369;28;20227;-83
2023/01/17 06:03:59;;;;;;;122.37;58.27;;;5.50;99.90;;;;;;5074334;28;20651;-84
2023/01/17 06:06:24;;;;;;;21.10;13.10;;;5.50;99.90;;;;;;5073737;28;20294;-83
2023/01/17 06:08:50;;;;;;;14.60;8.67;;;5.50;99.90;;;;;;5070977;28;20607;-83
2023/01/17 06:11:17;;;;;;;16.13;10.60;;;5.50;99.90;;;;;;5071166;28;20191;-85
2023/01/17 06:13:43;;;;;;;14.75;9.82;;;5.40;99.90;;;;;;5072801;28;20928;-84
2023/01/17 06:16:09;;;;;;;21.70;13.30;;;5.40;99.90;;;;;;5071779;28;20207;-83
2023/01/17 06:18:34;;;;;;;10.70;7.00;;;5.40;99.90;;;;;;5072889;28;20199;-83
2023/01/17 06:21:00;;;;;;;17.37;11.23;;;5.40;99.90;;;;;;5103952;28;20226;-83
2023/01/17 06:23:27;;;;;;;17.00;11.63;;;5.40;99.90;;;;;;5091432;28;20243;-84
2023/01/17 06:25:52;;;;;;;10.23;7.25;;;5.30;99.90;;;;;;5091786;28;20644;-85
2023/01/17 06:28:20;;;;;;;23.60;13.93;;;5.30;99.90;;;;;;5102852;28;20228;-85
2023/01/17 06:30:47;;;;;;;22.42;13.48;;;5.30;99.90;;;;;;5094361;28;20266;-84
2023/01/17 06:33:14;;;;;;;18.67;11.77;;;5.30;99.90;;;;;;5097558;28;20677;-85
2023/01/17 06:35:48;;;;;;;25.73;16.80;;;5.20;99.90;;;;;;5092419;28;20538;-83
2023/01/17 06:38:15;;;;;;;21.17;13.38;;;5.20;99.90;;;;;;5104944;28;20195;-84
2023/01/17 06:40:40;;;;;;;22.25;16.00;;;5.30;99.90;;;;;;5102959;28;20188;-85
2023/01/17 06:43:06;;;;;;;21.00;14.60;;;5.20;99.90;;;;;;5101968;28;20632;-84
2023/01/17 06:45:34;;;;;;;30.20;19.33;;;5.30;99.90;;;;;;5103566;28;20228;-82
2023/01/17 06:48:02;;;;;;;15.63;12.55;;;5.30;99.90;;;;;;5102316;28;20212;-83
2023/01/17 06:50:28;;;;;;;16.95;11.88;;;5.30;99.90;;;;;;5104527;28;20186;-85
2023/01/17 06:52:58;;;;;;;33.15;24.17;;;5.30;99.90;;;;;;5104198;28;20286;-83
2023/01/17 06:55:27;;;;;;;27.63;20.23;;;5.30;99.90;;;;;;5097009;28;20220;-84
2023/01/17 06:57:54;;;;;;;22.92;17.80;;;5.40;99.90;;;;;;5091499;28;20472;-83
2023/01/17 07:00:21;;;;;;;20.65;13.93;;;5.40;99.90;;;;;;5090556;28;20229;-85
2023/01/17 07:02:53;;;;;;;16.58;9.48;;;5.40;99.90;;;;;;5095909;28;20287;-84
2023/01/17 07:05:19;;;;;;;21.35;16.77;;;5.40;99.90;;;;;;5109591;28;20232;-85
2023/01/17 07:07:46;;;;;;;23.17;15.30;;;5.40;99.90;;;;;;5094487;28;20220;-84
2023/01/17 07:10:13;;;;;;;23.15;15.88;;;5.50;99.90;;;;;;5093931;28;20180;-82
2023/01/17 07:12:40;;;;;;;23.15;16.60;;;5.60;99.90;;;;;;5093325;28;20203;-84
2023/01/17 07:15:06;;;;;;;19.55;13.45;;;5.60;99.90;;;;;;5091184;28;20181;-84
2023/01/17 07:17:33;;;;;;;24.10;17.15;;;5.70;99.90;;;;;;5089554;28;20203;-83
2023/01/17 07:19:59;;;;;;;24.60;18.00;;;5.80;99.90;;;;;;5097743;28;20172;-84
2023/01/17 07:22:25;;;;;;;27.53;18.73;;;5.80;99.90;;;;;;5093186;28;20283;-86
2023/01/17 07:24:52;;;;;;;24.27;16.83;;;5.90;99.90;;;;;;5101062;28;20679;-84
2023/01/17 07:27:18;;;;;;;21.60;16.10;;;5.90;99.90;;;;;;5092648;28;20216;-87
2023/01/17 07:29:43;;;;;;;18.97;14.40;;;6.00;99.90;;;;;;5108760;28;20199;-85
2023/01/17 07:32:09;;;;;;;18.47;12.67;;;6.00;99.90;;;;;;5088147;28;20304;-87
2023/01/17 07:34:35;;;;;;;93.10;50.90;;;6.10;99.90;;;;;;5079726;28;20883;-86
2023/01/17 07:37:01;;;;;;;23.20;15.40;;;6.20;99.90;;;;;;5080303;28;20192;-85
2023/01/17 07:39:27;;;;;;;14.43;11.87;;;6.30;99.90;;;;;;5082204;28;21314;-85
2023/01/17 07:41:53;;;;;;;16.43;12.00;;;6.40;99.90;;;;;;5077587;28;20283;-85
2023/01/17 07:44:19;;;;;;;16.70;11.95;;;6.50;99.90;;;;;;5081832;28;20181;-87
2023/01/17 07:46:44;;;;;;;14.47;11.77;;;6.80;99.90;;;;;;5078864;28;20216;-86
2023/01/17 07:49:10;;;;;;;17.30;11.67;;;7.10;99.90;;;;;;5079425;28;20291;-87
2023/01/17 07:51:36;;;;;;;16.37;12.13;;;7.40;99.90;;;;;;5080424;28;20913;-85
2023/01/17 07:54:01;;;;;;;11.47;7.80;;;7.60;99.90;;;;;;5078945;28;20219;-85
2023/01/17 07:56:27;;;;;;;9.17;6.90;;;7.80;99.90;;;;;;5076861;28;20263;-86
2023/01/17 07:58:53;;;;;;;8.73;6.33;;;8.10;99.90;;;;;;5077854;28;20427;-86
2023/01/17 08:01:18;;;;;;;10.00;6.83;;;8.60;99.90;;;;;;5078737;28;20419;-88
2023/01/17 08:03:44;;;;;;;6.23;5.20;;;8.90;99.90;;;;;;5080506;28;20230;-86
2023/01/17 08:06:24;;;;;;;7.30;6.17;;;9.20;99.90;;;;;;5077484;28;20249;-86
2023/01/17 08:08:51;;;;;;;8.15;6.22;;;9.60;99.90;;;;;;5083189;28;21308;-86
2023/01/17 08:11:17;;;;;;;21.63;12.80;;;9.80;99.90;;;;;;5085496;28;20207;-85
2023/01/17 08:13:43;;;;;;;29.83;20.80;;;9.90;99.90;;;;;;5078125;28;20255;-86
2023/01/17 08:16:10;;;;;;;6.47;5.53;;;9.80;99.90;;;;;;5089282;28;20191;-87
2023/01/17 08:18:36;;;;;;;6.93;4.53;;;9.60;99.90;;;;;;5080937;27;20455;-87
2023/01/17 08:21:02;;;;;;;6.00;4.45;;;9.60;99.90;;;;;;5084347;28;20199;-86
2023/01/17 08:23:30;;;;;;;8.10;5.55;;;10.00;99.90;;;;;;5080553;28;20250;-84
2023/01/17 08:25:59;;;;;;;7.47;5.35;;;10.90;99.90;;;;;;5078668;28;20220;-87
2023/01/17 08:28:25;;;;;;;9.00;5.90;;;12.10;99.90;;;;;;5085087;28;20303;-86
2023/01/17 08:30:50;;;;;;;5.87;4.17;;;12.50;99.90;;;;;;5081349;28;20528;-90
2023/01/17 08:33:16;;;;;;;5.03;4.53;;;12.00;99.90;;;;;;5083215;28;20673;-90
2023/01/17 08:35:53;;;;;;;12.00;5.37;;;11.30;99.90;;;;;;5088661;28;20176;-85
2023/01/17 08:38:22;;;;;;;6.30;4.67;;;10.80;99.90;;;;;;5081027;28;20530;-89
2023/01/17 08:40:49;;;;;;;5.78;4.35;;;11.00;99.90;;;;;;5081467;28;20646;-84
2023/01/17 08:43:15;;;;;;;3.70;3.40;;;10.80;99.90;;;;;;5081358;28;20497;-87
2023/01/17 08:45:44;;;;;;;5.83;4.40;;;10.70;99.90;;;;;;5080167;28;20765;-84
2023/01/17 08:48:10;;;;;;;5.82;5.30;;;10.50;99.90;;;;;;5080124;28;20689;-83
2023/01/17 08:50:35;;;;;;;6.93;4.90;;;10.30;99.90;;;;;;5079542;28;20342;-88
2023/01/17 08:53:01;;;;;;;10.10;5.30;;;10.10;99.90;;;;;;5079220;28;20431;-87
2023/01/17 08:55:27;;;;;;;6.00;4.63;;;10.00;99.90;;;;;;5078241;28;20219;-84
2023/01/17 08:57:53;;;;;;;4.80;4.30;;;9.90;99.90;;;;;;5090415;28;20298;-84
2023/01/17 09:00:19;;;;;;;7.00;4.90;;;9.80;99.90;;;;;;5077268;28;20180;-87
2023/01/17 09:02:44;;;;;;;4.55;3.92;;;9.80;99.90;;;;;;5082786;28;20282;-84
2023/01/17 09:05:12;;;;;;;4.10;3.80;;;10.00;99.90;;;;;;5079727;28;20492;-87
2023/01/17 09:07:37;;;;;;;6.13;3.60;;;10.10;99.90;;;;;;5075681;28;20563;-87
2023/01/17 09:10:04;;;;;;;4.00;3.60;;;10.30;99.90;;;;;;5077909;28;20184;-84
2023/01/17 09:12:33;;;;;;;3.72;3.33;;;10.40;99.90;;;;;;5082952;28;21054;-83
2023/01/17 09:14:59;;;;;;;5.25;3.50;;;10.40;99.90;;;;;;5085478;27;20220;-83
2023/01/17 09:17:25;;;;;;;4.65;3.20;;;10.50;99.90;;;;;;5079131;28;20200;-84
2023/01/17 09:19:51;;;;;;;4.03;2.67;;;10.90;99.90;;;;;;5081016;28;20200;-85
2023/01/17 09:22:16;;;;;;;2.73;2.53;;;11.30;99.90;;;;;;5077398;28;20204;-84
2023/01/17 09:24:42;;;;;;;5.33;4.07;;;11.80;99.90;;;;;;5080888;28;20180;-84
2023/01/17 09:27:07;;;;;;;3.83;2.87;;;12.50;99.90;;;;;;5076255;28;20303;-87
2023/01/17 09:29:33;;;;;;;4.30;3.90;;;13.60;99.90;;;;;;5075980;28;20180;-85
2023/01/17 09:31:59;;;;;;;4.20;3.37;;;14.50;99.90;;;;;;5075271;28;20587;-84
2023/01/17 09:34:25;;;;;;;4.67;2.90;;;15.10;99.90;;;;;;5085582;28;20667;-87
2023/01/17 09:36:51;;;;;;;6.63;4.30;;;15.10;99.90;;;;;;5094045;28;20433;-84
2023/01/17 09:39:16;;;;;;;3.67;3.00;;;15.30;99.90;;;;;;5089455;28;20192;-85
2023/01/17 09:41:58;;;;;;;4.40;3.73;;;15.50;99.90;;;;;;5098801;28;20234;-87
2023/01/17 09:44:35;;;;;;;3.03;2.40;;;16.00;99.90;;;;;;5109030;28;20164;-87
2023/01/17 09:47:15;;;;;;;4.60;2.20;;;15.70;99.90;;;;;;5110689;28;20479;-84
2023/01/17 09:49:44;;;;;;;4.07;3.37;;;15.20;99.90;;;;;;5109537;28;20499;-84
2023/01/17 09:52:14;;;;;;;6.90;5.50;;;15.30;99.90;;;;;;5092445;28;20859;-86
2023/01/17 09:54:43;;;;;;;3.20;3.00;;;15.60;99.90;;;;;;5089602;28;21604;-84
2023/01/17 09:57:16;;;;;;;7.43;6.17;;;15.40;99.90;;;;;;5088783;28;20488;-86
2023/01/17 10:00:15;;;;;;;4.50;3.73;;;15.10;99.90;;;;;;5100168;28;20447;-84
2023/01/17 10:03:04;;;;;;;4.43;2.33;;;14.60;99.90;;;;;;5102327;28;20448;-85
2023/01/17 10:05:51;;;;;;;5.27;4.77;;;14.30;99.90;;;;;;5104124;28;20438;-87
2023/01/17 10:08:33;;;;;;;6.93;3.10;;;14.10;99.90;;;;;;5107339;28;20431;-84
2023/01/17 10:11:16;;;;;;;3.67;2.30;;;13.80;99.90;;;;;;5108849;28;20772;-87
2023/01/17 10:13:52;;;;;;;13.57;10.87;;;13.50;99.90;;;;;;5106687;28;20789;-87
2023/01/17 10:16:43;;;;;;;5.40;4.33;;;13.40;99.90;;;;;;5103659;28;20435;-86
2023/01/17 10:19:44;;;;;;;7.30;6.60;;;13.20;99.90;;;;;;5106545;28;20444;-84
2023/01/17 10:22:48;;;;;;;4.73;2.57;;;13.20;99.90;;;;;;5067805;28;20452;-86
2023/01/17 10:25:31;;;;;;;3.30;2.60;;;13.30;99.90;;;;;;5075662;28;20424;-83
2023/01/17 10:28:02;;;;;;;1.67;1.50;;;13.10;99.90;;;;;;5110586;28;20506;-84
2023/01/17 10:30:36;;;;;;;8.20;5.00;;;12.90;99.90;;;;;;5098116;28;20452;-83
2023/01/17 10:33:13;;;;;;;11.70;10.23;;;12.80;99.90;;;;;;5088187;28;20444;-86
2023/01/17 10:35:54;;;;;;;6.93;4.47;;;13.00;99.90;;;;;;5091628;28;20428;-87
2023/01/17 10:38:33;;;;;;;3.73;3.30;;;13.00;99.90;;;;;;5100811;28;20469;-88
2023/01/17 10:41:21;;;;;;;4.67;3.20;;;13.20;99.90;;;;;;5089395;28;20445;-84
2023/01/17 10:44:04;;;;;;;3.23;2.90;;;13.60;99.90;;;;;;5090306;28;20842;-83
2023/01/17 10:47:00;;;;;;;3.77;2.67;;;13.80;99.90;;;;;;5094679;28;20825;-83
2023/01/17 10:49:27;;;;;;;4.77;2.80;;;13.80;99.90;;;;;;5078168;28;20425;-87
2023/01/17 10:51:59;;;;;;;4.73;3.43;;;13.70;99.90;;;;;;5100957;28;20427;-84
2023/01/17 10:54:48;;;;;;;3.57;3.00;;;13.60;99.90;;;;;;5095967;28;20485;-83
2023/01/17 10:57:24;;;;;;;3.23;2.93;;;13.20;99.90;;;;;;5103966;28;20498;-87
2023/01/17 10:59:51;;;;;;;4.20;3.80;;;13.00;99.90;;;;;;5096253;28;20447;-86
2023/01/17 11:02:41;;;;;;;3.80;2.80;;;12.80;99.90;;;;;;5105371;28;20524;-86
2023/01/17 11:05:23;;;;;;;5.33;4.00;;;12.90;99.90;;;;;;5101256;28;20481;-87
2023/01/17 11:08:12;;;;;;;3.13;2.37;;;12.90;99.90;;;;;;5099474;28;21075;-84
2023/01/17 11:10:48;;;;;;;38.07;21.57;;;12.60;99.90;;;;;;5106178;28;20428;-89
2023/01/17 11:13:30;;;;;;;3.30;2.80;;;12.40;99.90;;;;;;5103263;28;20443;-85
2023/01/17 11:16:04;;;;;;;4.77;2.90;;;12.30;99.90;;;;;;5109479;28;20428;-89
2023/01/17 11:18:36;;;;;;;6.43;3.70;;;12.30;99.90;;;;;;5095296;28;20454;-85
2023/01/17 11:21:23;;;;;;;5.07;2.30;;;12.10;99.90;;;;;;5088848;28;20957;-87
2023/01/17 11:23:53;;;;;;;6.17;5.10;;;12.00;99.90;;;;;;5092512;28;20984;-85
2023/01/17 11:26:31;;;;;;;3.50;3.03;;;11.90;99.90;;;;;;5099176;28;20482;-83
2023/01/17 11:29:27;;;;;;;4.10;3.70;;;11.80;99.90;;;;;;5104861;28;20439;-83
2023/01/17 11:31:55;;;;;;;5.47;4.50;;;11.70;99.90;;;;;;5017062;28;20428;-86
2023/01/17 11:34:25;;;;;;;9.80;7.07;;;11.60;99.90;;;;;;5092033;28;20400;-85
2023/01/17 11:37:18;;;;;;;16.10;11.13;;;11.70;99.90;;;;;;5108620;28;20423;-85
2023/01/17 11:39:46;;;;;;;5.47;3.93;;;11.70;99.90;;;;;;5095199;28;20458;-84
2023/01/17 11:42:33;;;;;;;9.57;5.50;;;11.80;99.90;;;;;;5103578;28;20451;-85
2023/01/17 11:45:28;;;;;;;4.40;3.10;;;11.90;99.90;;;;;;5089212;28;20436;-84
2023/01/17 11:48:07;;;;;;;3.80;2.80;;;12.00;99.90;;;;;;5100589;28;20553;-87
2023/01/17 11:50:36;;;;;;;6.00;4.13;;;12.00;99.90;;;;;;5091802;28;20444;-84
2023/01/17 11:53:37;;;;;;;4.70;3.27;;;12.00;99.90;;;;;;5102881;28;20519;-84
2023/01/17 11:56:21;;;;;;;4.57;3.63;;;12.10;99.90;;;;;;5057037;28;20821;-88
2023/01/17 11:58:49;;;;;;;6.30;4.40;;;12.20;99.90;;;;;;5076743;28;20442;-86
2023/01/17 12:01:18;;;;;;;5.80;3.90;;;12.20;99.90;;;;;;5077215;28;20446;-88
2023/01/17 12:04:02;;;;;;;6.80;4.03;;;12.20;99.90;;;;;;5078082;28;20453;-91
2023/01/17 12:06:45;;;;;;;2.67;1.90;;;12.30;99.90;;;;;;5079343;28;20472;-85
2023/01/17 12:09:34;;;;;;;2.70;2.20;;;12.40;99.90;;;;;;5084847;28;20437;-85
2023/01/17 12:15:44;;;;;;;5.23;3.27;;;12.50;99.90;;;;;;5067636;28;20448;-86
2023/01/17 12:18:25;;;;;;;9.33;4.70;;;12.50;99.90;;;;;;5076781;28;20457;-88
2023/01/17 12:21:12;;;;;;;2.80;2.00;;;12.60;99.90;;;;;;5079984;28;20434;-87
2023/01/17 12:24:05;;;;;;;2.80;2.00;;;12.70;99.90;;;;;;5080628;28;21010;-86
2023/01/17 12:27:09;;;;;;;4.80;4.20;;;12.80;99.90;;;;;;5053098;28;20496;-86
2023/01/17 12:30:04;;;;;;;6.40;4.20;;;12.80;99.90;;;;;;5080981;28;20468;-86
2023/01/17 12:32:32;;;;;;;7.33;4.00;;;12.70;99.90;;;;;;5083091;28;20501;-86
2023/01/17 12:35:01;;;;;;;3.73;2.87;;;12.80;99.90;;;;;;5072880;28;20446;-86
2023/01/17 12:37:35;;;;;;;2.77;2.30;;;12.90;99.90;;;;;;5074580;28;20602;-86
2023/01/17 12:40:13;;;;;;;4.47;3.47;;;12.80;99.90;;;;;;5074990;28;20448;-86
2023/01/17 12:42:46;;;;;;;5.40;4.83;;;12.70;99.90;;;;;;5070397;28;20450;-86
2023/01/17 12:45:14;;;;;;;3.40;2.60;;;12.60;99.90;;;;;;5071491;28;20394;-86
2023/01/17 12:47:44;;;;;;;5.30;4.47;;;12.60;99.90;;;;;;5074530;28;20573;-87
2023/01/17 12:50:37;;;;;;;5.17;4.37;;;12.70;99.90;;;;;;5071759;28;20449;-86
2023/01/17 12:53:36;;;;;;;3.10;2.90;;;12.60;99.90;;;;;;5080329;28;20485;-87
2023/01/17 12:56:08;;;;;;;3.30;2.87;;;12.60;99.90;;;;;;5077628;28;20501;-85
2023/01/17 12:58:43;;;;;;;3.67;2.70;;;12.60;99.90;;;;;;5087761;28;20454;-83
2023/01/17 13:01:29;;;;;;;2.83;2.33;;;12.70;99.90;;;;;;5100789;28;20448;-84
2023/01/17 13:04:18;;;;;;;4.73;3.33;;;12.80;99.90;;;;;;5101773;28;20506;-86
2023/01/17 13:06:43;;;;;;;4.87;2.73;;;12.80;99.90;;;;;;5089073;28;20461;-85
2023/01/17 13:09:15;;;;;;;4.00;3.27;;;12.80;99.90;;;;;;5102566;28;20885;-85
2023/01/17 13:12:08;;;;;;;8.53;6.00;;;12.90;99.90;;;;;;5098446;28;20184;-84
2023/01/17 13:14:34;;;;;;;6.03;5.37;;;13.00;99.90;;;;;;5101599;28;20417;-84
2023/01/17 13:17:12;;;;;;;5.20;4.37;;;13.00;99.90;;;;;;5101356;27;20436;-86
2023/01/17 13:20:13;;;;;;;7.13;4.10;;;13.00;99.90;;;;;;5103085;28;20433;-84
2023/01/17 13:22:40;;;;;;;4.55;3.70;;;13.10;99.90;;;;;;5102912;28;20463;-86
2023/01/17 13:25:33;;;;;;;6.20;4.13;;;13.10;99.90;;;;;;5100384;28;20184;-84
2023/01/17 13:28:47;;;;;;;6.07;5.07;;;13.10;99.90;;;;;;5102702;28;20450;-85
2023/01/17 13:31:48;;;;;;;8.10;5.27;;;13.00;99.90;;;;;;5065080;28;20720;-83
2023/01/17 13:34:32;;;;;;;4.20;3.50;;;13.00;99.90;;;;;;5096197;28;20451;-85
2023/01/17 13:37:18;;;;;;;7.20;4.40;;;13.00;99.90;;;;;;5095690;28;20467;-84
2023/01/17 13:40:09;;;;;;;4.93;3.80;;;13.00;99.90;;;;;;5095396;28;20428;-83
2023/01/17 13:42:50;;;;;;;6.67;4.23;;;12.90;99.90;;;;;;5098850;28;20466;-84
2023/01/17 13:45:25;;;;;;;4.77;3.67;;;12.90;99.90;;;;;;5094315;28;20707;-84
2023/01/17 13:47:52;;;;;;;7.70;4.90;;;12.90;99.90;;;;;;5092043;28;20510;-84
2023/01/17 13:50:44;;;;;;;23.87;9.80;;;13.00;99.90;;;;;;5097248;28;20436;-84
2023/01/17 13:53:30;;;;;;;36.97;14.30;;;12.90;99.90;;;;;;5072750;28;20447;-85
2023/01/17 13:56:43;;;;;;;34.27;13.93;;;13.00;99.90;;;;;;5096835;28;21047;-85
2023/01/17 13:59:27;;;;;;;16.90;10.90;;;12.90;99.90;;;;;;5079087;28;20555;-84
2023/01/17 14:01:54;;;;;;;11.70;9.50;;;12.90;99.90;;;;;;5092586;28;20497;-84
2023/01/17 14:04:20;;;;;;;10.03;8.33;;;12.80;99.90;;;;;;5094944;28;20432;-84
2023/01/17 14:06:52;;;;;;;10.00;7.60;;;12.80;99.90;;;;;;5089708;28;20483;-84
2023/01/17 14:09:20;;;;;;;9.97;7.77;;;12.80;99.90;;;;;;5091020;28;20421;-84
2023/01/17 14:12:03;;;;;;;11.37;8.70;;;12.80;99.90;;;;;;5097737;28;20429;-83
2023/01/17 14:14:44;;;;;;;15.50;10.63;;;12.80;99.90;;;;;;5090202;28;20928;-84
2023/01/17 14:17:25;;;;;;;16.63;10.80;;;12.70;99.90;;;;;;5098397;28;20452;-84
2023/01/17 14:20:11;;;;;;;15.00;10.37;;;12.70;99.90;;;;;;5089917;28;20437;-83
2023/01/17 14:22:40;;;;;;;16.07;11.90;;;12.70;99.90;;;;;;5091998;28;20487;-84
2023/01/17 14:25:08;;;;;;;17.33;11.80;;;12.60;99.90;;;;;;5097452;28;20420;-84
2023/01/17 14:27:42;;;;;;;19.60;11.43;;;12.60;99.90;;;;;;5101425;28;20340;-83
2023/01/17 14:30:21;;;;;;;21.80;13.45;;;12.60;99.90;;;;;;5100530;28;21142;-84
2023/01/17 14:33:04;;;;;;;16.00;11.37;;;12.50;99.90;;;;;;5105696;28;20203;-84